Mid Ohio Valley Regional Airport
KPKB : now visible

Airfield :











YOU CAN JOIN US ON...

 
LOGIN :

Register | Disclaimer

   EN    FR    IT 

 









Legend :    VFR   Marginal VFR   IFR   Intensive IFR   Very Intensive IFR
Visi :
Ceiling :
>= 8 km
>= 3000ft
5 to 8 km
1000 to 3000 ft
1500m to 5 km
500 to 1000 ft
800 to 1500m
200 to 500 ft
< 800m
< 200 ft
Symbols :   Thunderstorms  Fog  Heavy snow  Heavy precipitations  Wind > 20 kt






- Airport Elevation : 858 ft
- IATA code : PKB


KPKB - Mid Ohio Valley Regional

CURRENT METAR :
  • 050653Z AUTO 00000KT 10SM OVC005 19/18 A2988 RMK AO2 SLP110 T01940183

EXPIRED METARs :
  • 050553Z AUTO 00000KT 10SM BKN005 19/18 A2988 RMK AO2 SLP110 60003 T01890183 10194 20189 58006
  • 050453Z AUTO 19004KT 10SM OVC006 19/18 A2989 RMK AO2 SLP113 T01940183 403000172
  • 050441Z AUTO 17005KT 10SM BKN006 19/18 A2989 RMK AO2 T01940183

TAF KPKB
Valid from the 05 at 06:00 until the 06 at 06:00 UTC


050533Z 0506/0606 00000KT P6SM OVC006
FM050700 00000KT P6SM OVC007
FM051100 00000KT 6SM BR OVC012
FM051800 00000KT P6SM BKN035
FM060300 00000KT P6SM SCT150
KZID FIR / North America



MET'MAP, your aeronautical weather chart ! - Copyright ORBIFLY December 2007 - Disclaimer

ORBIFLY MET'MAP TEAM :

Programming & Development : Alexandra Zaïnal
Concept & original design : Baudouin d'Aumeries
Assistance for programming : Marc-Olivier Méhu
Technical & hardware support : Manuel Goepfert

Contact : metmap@orbifly.com




SOURCES & CREDITS :

   NOAA       Earth
Advisory